createdAt,value
2019-04-16T00:03:03.775Z,67.25
2019-04-16T00:13:08.689Z,67.66
2019-04-16T00:23:09.419Z,67.32
2019-04-16T00:33:10.711Z,67.07
2019-04-16T00:43:12.476Z,67.23
2019-04-16T00:53:14.242Z,67.63
2019-04-16T01:03:15.074Z,67.89
2019-04-16T01:13:15.712Z,66.92
2019-04-16T01:23:17.783Z,69.18
2019-04-16T01:33:19.155Z,68.41
2019-04-16T01:43:25.505Z,69.13
2019-04-16T01:53:23.747Z,72.02
2019-04-16T02:03:24.528Z,70.48
2019-04-16T02:13:27.335Z,69.62
2019-04-16T02:23:28.206Z,69.31
2019-04-16T02:33:29.058Z,70.69
2019-04-16T02:43:29.967Z,70.78
2019-04-16T02:53:32.864Z,71.99
2019-04-16T03:03:48.659Z,70.73
2019-04-16T03:13:49.255Z,69.97
2019-04-16T03:23:52.047Z,71.98
2019-04-16T03:33:53.920Z,72.66
2019-04-16T03:43:55.763Z,70.55
2019-04-16T03:54:04.747Z,70.87
2019-04-16T04:04:12.166Z,71.68
2019-04-16T04:14:13.005Z,70.95
2019-04-16T04:24:13.693Z,70.67
2019-04-16T04:43:09.931Z,70.32
2019-04-16T04:44:17.397Z,70.69
2019-04-16T04:54:22.659Z,71.37
2019-04-16T05:04:37.054Z,72.18
2019-04-16T05:14:37.841Z,69.20
2019-04-16T05:24:38.566Z,70.65
2019-04-16T05:34:41.305Z,64.37
2019-04-16T05:44:44.338Z,61.68
2019-04-16T05:54:45.358Z,65.71
2019-04-16T06:04:58.103Z,65.66
2019-04-16T06:14:58.905Z,64.61
2019-04-16T06:25:08.266Z,61.99
2019-04-16T06:35:03.413Z,60.79
2019-04-16T06:45:07.459Z,62.15
2019-04-16T06:55:08.413Z,49.68
2019-04-16T07:05:10.222Z,56.79
2019-04-16T07:15:11.545Z,48.82
2019-04-16T07:25:13.862Z,52.85
2019-04-16T07:35:15.004Z,46.76
2019-04-16T07:45:22.622Z,45.83
2019-04-16T07:55:23.620Z,46.51
2019-04-16T08:05:27.863Z,46.58
2019-04-16T08:15:29.927Z,48.54
2019-04-16T08:25:34.015Z,49.28
2019-04-16T08:35:34.430Z,49.25
2019-04-16T08:45:39.158Z,44.29
2019-04-16T08:55:40.676Z,56.55
2019-04-16T09:05:44.389Z,53.07
2019-04-16T09:15:45.317Z,50.54
2019-04-16T09:25:46.675Z,42.21
2019-04-16T09:35:47.581Z,45.72
2019-04-16T09:45:48.576Z,43.73
2019-04-16T09:55:50.579Z,37.36
2019-04-16T10:05:53.021Z,38.36
2019-04-16T10:15:55.855Z,38.77
2019-04-16T10:25:56.662Z,39.63
2019-04-16T10:36:01.068Z,37.27
2019-04-16T10:46:01.382Z,36.01
2019-04-16T10:56:03.257Z,35.60
2019-04-16T11:06:11.026Z,36.31
2019-04-16T11:16:13.013Z,36.32
2019-04-16T11:26:13.806Z,37.83
2019-04-16T11:36:20.086Z,37.10
2019-04-16T11:46:17.448Z,36.94
2019-04-16T11:56:18.253Z,38.80
2019-04-16T12:06:27.737Z,39.73
2019-04-16T12:16:24.472Z,39.49
2019-04-16T12:26:27.328Z,41.44
2019-04-16T12:36:29.129Z,37.54
2019-04-16T12:46:34.917Z,37.64
2019-04-16T12:56:42.517Z,41.37
2019-04-16T13:06:44.365Z,38.89
2019-04-16T13:16:45.181Z,37.39
2019-04-16T13:26:46.929Z,36.64
2019-04-16T13:36:51.337Z,36.83
2019-04-16T13:46:50.470Z,37.16
2019-04-16T13:56:52.329Z,37.48
2019-04-16T14:06:55.123Z,38.40
2019-04-16T14:17:08.964Z,38.17
2019-04-16T14:27:05.919Z,38.92
2019-04-16T14:37:06.698Z,36.99
2019-04-16T14:47:07.650Z,37.68
2019-04-16T14:57:10.991Z,37.58
2019-04-16T15:07:14.012Z,38.46
2019-04-16T15:17:20.532Z,42.56
2019-04-16T15:27:21.250Z,38.29
2019-04-16T15:37:22.756Z,38.88
2019-04-16T15:47:24.760Z,40.92
2019-04-16T15:57:25.853Z,45.14
2019-04-16T16:07:36.349Z,47.08
2019-04-16T16:17:37.202Z,47.59
2019-04-16T16:27:41.735Z,46.76
2019-04-16T16:37:42.665Z,46.76
2019-04-16T16:47:43.620Z,46.26
2019-04-16T16:57:45.403Z,45.44
2019-04-16T17:07:47.121Z,45.36
2019-04-16T17:17:49.972Z,48.24
2019-04-16T17:27:51.911Z,47.06
2019-04-16T17:37:52.776Z,46.93
2019-04-16T17:47:56.420Z,47.80
2019-04-16T17:57:56.190Z,47.36
2019-04-16T18:07:56.933Z,58.89
2019-04-16T18:18:00.886Z,59.91
2019-04-16T18:28:04.238Z,63.12
2019-04-16T18:38:03.481Z,59.91
2019-04-16T18:48:12.572Z,57.32
2019-04-16T18:58:13.775Z,59.32
2019-04-16T19:08:14.592Z,59.77
2019-04-16T19:18:19.955Z,57.92
2019-04-16T19:28:20.350Z,61.67
2019-04-16T19:38:22.989Z,61.50
2019-04-16T19:48:35.473Z,66.79
2019-04-16T19:58:26.388Z,67.83
2019-04-16T20:08:27.493Z,61.58
2019-04-16T20:18:28.138Z,58.62
2019-04-16T20:28:29.066Z,57.83
2019-04-16T20:38:30.128Z,57.59
2019-04-16T20:48:31.403Z,55.99
2019-04-16T20:58:32.474Z,57.57
2019-04-16T21:08:33.317Z,59.25
2019-04-16T21:18:34.318Z,59.58
2019-04-16T21:28:35.412Z,62.03
2019-04-16T21:38:36.337Z,61.66
2019-04-16T21:48:37.207Z,63.61
2019-04-16T21:58:38.259Z,64.14
2019-04-16T22:08:38.977Z,64.81
2019-04-16T22:18:41.647Z,65.50
2019-04-16T22:28:44.428Z,65.71
2019-04-16T22:38:48.100Z,65.76
2019-04-16T22:48:49.892Z,64.75
2019-04-16T22:58:51.298Z,64.46
2019-04-16T23:08:51.983Z,63.44
2019-04-16T23:18:56.945Z,66.20
2019-04-16T23:28:57.947Z,63.50
2019-04-16T23:39:03.238Z,64.58
2019-04-16T23:49:01.341Z,65.95
2019-04-16T23:59:04.262Z,68.22
